createdAt,value
2017-12-23T00:00:04.019Z,6.89
2017-12-23T00:00:08.258Z,6.9
2017-12-23T00:00:12.502Z,7
2017-12-23T00:00:16.742Z,6.87
2017-12-23T00:00:21.088Z,6.93
2017-12-23T00:00:25.211Z,6.93
2017-12-23T00:00:29.467Z,6.89
2017-12-23T00:00:33.607Z,6.86
2017-12-23T00:00:37.629Z,6.83
2017-12-23T00:00:41.756Z,6.96
2017-12-23T00:00:45.767Z,6.91
2017-12-23T00:00:49.985Z,6.97
2017-12-23T00:00:53.992Z,6.93
2017-12-23T00:00:58.113Z,6.89
2017-12-23T00:01:02.686Z,6.82
2017-12-23T00:01:06.723Z,6.86
2017-12-23T00:01:10.963Z,6.87
2017-12-23T00:01:15.190Z,6.87
2017-12-23T00:01:19.308Z,6.89
2017-12-23T00:01:23.599Z,6.81
2017-12-23T00:01:27.500Z,6.91
2017-12-23T00:01:31.737Z,6.83
2017-12-23T00:01:35.883Z,6.9
2017-12-23T00:01:40.126Z,6.89
2017-12-23T00:01:44.462Z,6.93
2017-12-23T00:01:48.489Z,6.9
2017-12-23T00:01:52.824Z,6.87
2017-12-23T00:01:56.950Z,6.9
2017-12-23T00:02:01.193Z,6.9
2017-12-23T00:02:05.315Z,6.94
2017-12-23T00:02:09.237Z,6.89
2017-12-23T00:02:13.358Z,6.89
2017-12-23T00:02:17.542Z,6.93
2017-12-23T00:02:21.890Z,6.99
2017-12-23T00:02:26.245Z,6.91
2017-12-23T00:02:30.366Z,6.93
2017-12-23T00:02:34.706Z,6.83
2017-12-23T00:02:38.940Z,6.86
2017-12-23T00:02:43.230Z,6.96
2017-12-23T00:02:47.356Z,6.93
2017-12-23T00:02:51.385Z,6.87
2017-12-23T00:02:55.631Z,6.9
2017-12-23T00:02:59.855Z,6.9
2017-12-23T00:03:04.101Z,6.96
2017-12-23T00:03:08.340Z,6.83
2017-12-23T00:03:12.572Z,6.93
2017-12-23T00:03:16.722Z,6.87
2017-12-23T00:03:21.079Z,6.9
2017-12-23T00:03:25.204Z,6.83
2017-12-23T00:03:29.448Z,6.83
2017-12-23T00:03:33.590Z,6.9
2017-12-23T00:03:37.725Z,6.96
2017-12-23T00:03:41.945Z,6.9
2017-12-23T00:03:46.061Z,6.94
2017-12-23T00:03:50.195Z,6.94
2017-12-23T00:03:54.205Z,6.91
2017-12-23T00:03:58.581Z,7
2017-12-23T00:04:03.078Z,6.91
2017-12-23T00:04:07.200Z,6.93
2017-12-23T00:04:11.534Z,6.91
2017-12-23T00:04:15.652Z,6.94
2017-12-23T00:04:19.885Z,6.99
2017-12-23T00:04:24.007Z,6.89
2017-12-23T00:04:28.090Z,6.91
2017-12-23T00:04:31.998Z,6.91
2017-12-23T00:04:36.334Z,6.93
2017-12-23T00:04:40.348Z,6.91
2017-12-23T00:04:44.358Z,6.93
2017-12-23T00:04:48.392Z,6.91
2017-12-23T00:04:52.733Z,6.9
2017-12-23T00:04:56.854Z,6.96
2017-12-23T00:05:01.001Z,6.94
2017-12-23T00:05:05.423Z,6.96
2017-12-23T00:05:09.560Z,6.94
2017-12-23T00:05:13.781Z,6.96
2017-12-23T00:05:17.798Z,6.94
2017-12-23T00:05:22.035Z,6.91
2017-12-23T00:05:25.953Z,6.96
2017-12-23T00:05:30.089Z,6.94
2017-12-23T00:05:34.341Z,6.97
2017-12-23T00:05:38.477Z,6.96
2017-12-23T00:05:42.721Z,6.91
2017-12-23T00:05:46.732Z,6.91
2017-12-23T00:05:50.964Z,6.99
2017-12-23T00:05:55.088Z,6.91
2017-12-23T00:05:59.103Z,6.97
2017-12-23T00:06:03.330Z,6.9
2017-12-23T00:06:07.666Z,7
2017-12-23T00:06:12.010Z,6.93
2017-12-23T00:06:16.245Z,6.91
2017-12-23T00:06:20.396Z,6.97
2017-12-23T00:06:24.529Z,6.93
2017-12-23T00:06:28.766Z,6.94
2017-12-23T00:06:32.894Z,6.94
2017-12-23T00:06:37.140Z,7
2017-12-23T00:06:41.383Z,6.96
2017-12-23T00:06:45.524Z,6.93
2017-12-23T00:06:49.644Z,6.94
2017-12-23T00:06:53.663Z,7
2017-12-23T00:06:57.371Z,6.9
2017-12-23T00:07:01.393Z,6.99
2017-12-23T00:07:05.526Z,7.01
2017-12-23T00:07:09.762Z,7
2017-12-23T00:07:14.116Z,6.94
2017-12-23T00:07:18.242Z,6.99
2017-12-23T00:07:22.472Z,6.96
2017-12-23T00:07:26.714Z,6.97
2017-12-23T00:07:30.843Z,6.97
2017-12-23T00:07:34.969Z,6.96
2017-12-23T00:07:39.103Z,6.97
2017-12-23T00:07:43.336Z,7.01
2017-12-23T00:07:47.465Z,6.97
2017-12-23T00:07:51.382Z,7
2017-12-23T00:07:55.715Z,6.99
2017-12-23T00:07:59.756Z,7.01
2017-12-23T00:08:03.895Z,7
2017-12-23T00:08:08.138Z,7.01
2017-12-23T00:08:12.268Z,6.96
2017-12-23T00:08:16.400Z,7
2017-12-23T00:08:20.554Z,7
2017-12-23T00:08:24.684Z,6.96
2017-12-23T00:08:28.816Z,7
2017-12-23T00:08:33.080Z,6.97
2017-12-23T00:08:37.107Z,6.97
2017-12-23T00:08:41.225Z,7.04
2017-12-23T00:08:45.136Z,7
2017-12-23T00:08:49.433Z,7
2017-12-23T00:08:53.566Z,6.97
2017-12-23T00:08:57.796Z,6.93
2017-12-23T00:09:01.864Z,7.04
2017-12-23T00:09:05.983Z,6.93
2017-12-23T00:09:09.887Z,6.99
2017-12-23T00:09:14.006Z,6.96
2017-12-23T00:09:18.237Z,7.01
2017-12-23T00:09:22.462Z,6.96
2017-12-23T00:09:26.810Z,6.99
2017-12-23T00:09:31.163Z,7
2017-12-23T00:09:35.390Z,7.01
2017-12-23T00:09:39.517Z,6.99
2017-12-23T00:09:43.639Z,6.99
2017-12-23T00:09:47.859Z,6.91
2017-12-23T00:09:52.187Z,7
2017-12-23T00:09:56.435Z,7.01
2017-12-23T00:10:00.551Z,7.01
2017-12-23T00:10:04.785Z,7.05
2017-12-23T00:10:08.699Z,7
2017-12-23T00:10:12.837Z,6.99
2017-12-23T00:10:16.975Z,7.01
2017-12-23T00:10:21.212Z,6.99
2017-12-23T00:10:25.557Z,6.99
2017-12-23T00:10:29.896Z,7.05
2017-12-23T00:10:34.138Z,7
2017-12-23T00:10:38.371Z,7
2017-12-23T00:10:42.601Z,7.04
2017-12-23T00:10:46.648Z,6.94
2017-12-23T00:10:50.763Z,6.97
2017-12-23T00:10:54.770Z,7.05
2017-12-23T00:10:58.684Z,7.04
2017-12-23T00:11:02.658Z,7
2017-12-23T00:11:06.990Z,7.05
2017-12-23T00:11:11.226Z,7.04
2017-12-23T00:11:15.573Z,6.99
2017-12-23T00:11:19.703Z,7
2017-12-23T00:11:23.978Z,6.97
2017-12-23T00:11:28.106Z,6.97
2017-12-23T00:11:32.133Z,6.97
2017-12-23T00:11:36.161Z,6.96
2017-12-23T00:11:40.396Z,6.99
2017-12-23T00:11:44.736Z,7.04
2017-12-23T00:11:48.655Z,7.01
2017-12-23T00:11:52.474Z,7.07
2017-12-23T00:11:56.802Z,7
2017-12-23T00:12:00.816Z,7.05
2017-12-23T00:12:04.950Z,6.94
2017-12-23T00:12:08.983Z,7.07
2017-12-23T00:12:12.885Z,7.01
2017-12-23T00:12:16.796Z,7.01
2017-12-23T00:12:21.014Z,7.05
2017-12-23T00:12:25.362Z,7.08
2017-12-23T00:12:29.589Z,7.01
2017-12-23T00:12:33.602Z,6.94
2017-12-23T00:12:37.947Z,7.08
2017-12-23T00:12:42.281Z,6.99
2017-12-23T00:12:46.334Z,7.04
2017-12-23T00:12:50.355Z,7.05
2017-12-23T00:12:54.373Z,7.01
2017-12-23T00:12:58.289Z,6.97
2017-12-23T00:13:02.639Z,7.07
2017-12-23T00:13:06.855Z,7
2017-12-23T00:13:10.991Z,7
2017-12-23T00:13:15.115Z,7.05
2017-12-23T00:13:19.241Z,7.05
2017-12-23T00:13:23.585Z,7.07
2017-12-23T00:13:27.937Z,7
2017-12-23T00:13:32.174Z,7.07
2017-12-23T00:13:36.406Z,7
2017-12-23T00:13:40.529Z,7.04
2017-12-23T00:13:44.556Z,7.07
2017-12-23T00:13:48.675Z,7.05
2017-12-23T00:13:52.375Z,7.09
2017-12-23T00:13:56.627Z,7.05
2017-12-23T00:14:00.748Z,7.01
2017-12-23T00:14:04.973Z,6.99
2017-12-23T00:14:09.213Z,6.99
2017-12-23T00:14:13.340Z,7
2017-12-23T00:14:17.565Z,6.99
2017-12-23T00:14:21.470Z,7.05
2017-12-23T00:14:25.590Z,7.09
2017-12-23T00:14:29.607Z,7.04
2017-12-23T00:14:33.830Z,7.04
2017-12-23T00:14:37.962Z,7.09
2017-12-23T00:14:42.191Z,7.05
2017-12-23T00:14:46.322Z,7.05
2017-12-23T00:14:50.443Z,7.07
2017-12-23T00:14:54.682Z,7.09
2017-12-23T00:14:58.813Z,6.99
2017-12-23T00:15:02.834Z,7.05
2017-12-23T00:15:07.000Z,7.04
2017-12-23T00:15:11.233Z,7.04
2017-12-23T00:15:15.257Z,7.11
2017-12-23T00:15:19.592Z,7.04
2017-12-23T00:15:23.929Z,7.07
2017-12-23T00:15:28.170Z,7.04
2017-12-23T00:15:32.505Z,7.05
2017-12-23T00:15:36.619Z,7.05
2017-12-23T00:15:40.757Z,7.05
2017-12-23T00:15:44.886Z,7.04
2017-12-23T00:15:48.991Z,7.07
2017-12-23T00:15:53.133Z,7.07
2017-12-23T00:15:57.164Z,7.07
2017-12-23T00:16:01.185Z,7.05
2017-12-23T00:16:05.320Z,7.11
2017-12-23T00:16:09.451Z,7.05
2017-12-23T00:16:13.571Z,7.08
2017-12-23T00:16:17.802Z,7.05
2017-12-23T00:16:22.051Z,7.01
2017-12-23T00:16:26.288Z,7.09
2017-12-23T00:17:00.542Z,7.07
2017-12-23T00:17:04.769Z,7.05
2017-12-23T00:17:08.909Z,7.12
2017-12-23T00:17:13.032Z,7.05
2017-12-23T00:17:16.950Z,7.08
2017-12-23T00:17:21.323Z,7.11
2017-12-23T00:17:25.430Z,7.09
2017-12-23T00:17:29.675Z,7.11
2017-12-23T00:17:34.030Z,7.01
2017-12-23T00:17:38.546Z,7.14
2017-12-23T00:17:42.664Z,7.08
2017-12-23T00:17:47.010Z,7.09
2017-12-23T00:17:51.365Z,7.14
2017-12-23T00:17:55.310Z,7.11
2017-12-23T00:17:59.322Z,7.08
2017-12-23T00:18:03.450Z,7.12
2017-12-23T00:18:07.461Z,7.11
2017-12-23T00:18:11.690Z,7.08
2017-12-23T00:18:15.802Z,7.11
2017-12-23T00:18:20.030Z,7.14
2017-12-23T00:18:24.161Z,7.14
2017-12-23T00:18:28.283Z,7.09
2017-12-23T00:18:32.400Z,7.11
2017-12-23T00:18:36.527Z,7.14
2017-12-23T00:18:40.574Z,7.09
2017-12-23T00:18:44.598Z,7.14
2017-12-23T00:18:48.714Z,7.12
2017-12-23T00:18:52.741Z,7.09
2017-12-23T00:18:56.657Z,7.14
2017-12-23T00:19:00.680Z,7.15
2017-12-23T00:19:05.017Z,7.11
2017-12-23T00:19:09.047Z,7.11
2017-12-23T00:19:13.393Z,7.12
2017-12-23T00:19:17.310Z,7.14
2017-12-23T00:19:21.646Z,7.08
2017-12-23T00:19:25.767Z,7.12
2017-12-23T00:19:29.886Z,7.12
2017-12-23T00:19:34.113Z,7.09
2017-12-23T00:19:38.352Z,7.09
2017-12-23T00:19:42.587Z,7.14
2017-12-23T00:19:46.814Z,7.09
2017-12-23T00:19:51.143Z,7.15
2017-12-23T00:19:55.382Z,7.15
2017-12-23T00:19:59.184Z,7.08
2017-12-23T00:20:03.278Z,7.09
2017-12-23T00:20:07.406Z,7.07
2017-12-23T00:20:11.330Z,7.08
2017-12-23T00:20:15.574Z,7.15
2017-12-23T00:20:19.931Z,7.12
2017-12-23T00:20:24.061Z,7.12
2017-12-23T00:20:28.095Z,7.12
2017-12-23T00:20:32.325Z,7.01
2017-12-23T00:20:36.561Z,7.15
2017-12-23T00:20:40.684Z,7.14
2017-12-23T00:20:44.911Z,7.19
2017-12-23T00:20:49.015Z,7.09
2017-12-23T00:20:53.356Z,7.14
2017-12-23T00:20:57.495Z,7.09
2017-12-23T00:21:02.097Z,7.23
2017-12-23T00:21:06.444Z,7.07
2017-12-23T00:21:10.694Z,7.09
2017-12-23T00:21:14.734Z,7.14
2017-12-23T00:21:18.968Z,7.04
2017-12-23T00:21:23.189Z,7.05
2017-12-23T00:21:27.432Z,7.05
2017-12-23T00:21:31.558Z,7.07
2017-12-23T00:21:35.673Z,7.09
2017-12-23T00:21:39.811Z,7.09
2017-12-23T00:21:43.847Z,7.07
2017-12-23T00:21:47.655Z,7.09
2017-12-23T00:21:51.871Z,7.08
2017-12-23T00:21:56.003Z,7.05
2017-12-23T00:22:00.335Z,7.05
2017-12-23T00:22:04.560Z,7.07
2017-12-23T00:22:08.681Z,7.21
2017-12-23T00:22:12.805Z,7.07
2017-12-23T00:22:16.831Z,7.12
2017-12-23T00:22:21.072Z,7.07
2017-12-23T00:22:24.972Z,7.12
2017-12-23T00:22:28.999Z,7.16
2017-12-23T00:22:33.119Z,7.23
2017-12-23T00:22:37.128Z,7.15
2017-12-23T00:22:41.244Z,7.07
2017-12-23T00:22:45.466Z,7.05
2017-12-23T00:22:49.794Z,7.09
2017-12-23T00:22:53.932Z,7.09
2017-12-23T00:22:58.155Z,7.07
2017-12-23T00:23:02.562Z,7.09
2017-12-23T00:23:06.474Z,7.16
2017-12-23T00:23:10.591Z,7.08
2017-12-23T00:23:14.841Z,7.18
2017-12-23T00:23:19.168Z,7.18
2017-12-23T00:23:23.287Z,7.07
2017-12-23T00:23:27.516Z,7.23
2017-12-23T00:23:31.648Z,7.05
2017-12-23T00:23:35.568Z,7.16
2017-12-23T00:23:39.920Z,7.21
2017-12-23T00:23:44.040Z,7.23
2017-12-23T00:23:48.179Z,7.05
2017-12-23T00:23:52.088Z,7.09
2017-12-23T00:23:56.332Z,7.15
2017-12-23T00:24:00.345Z,7.24
2017-12-23T00:24:04.520Z,7.19
2017-12-23T00:24:08.690Z,7.09
2017-12-23T00:24:12.603Z,7.21
2017-12-23T00:24:16.842Z,7.23
2017-12-23T00:24:21.086Z,7.18
2017-12-23T00:24:25.224Z,7.21
2017-12-23T00:24:29.367Z,7.12
2017-12-23T00:24:33.532Z,7.19
2017-12-23T00:24:37.563Z,7.15
2017-12-23T00:24:41.792Z,7.21
2017-12-23T00:24:46.126Z,7.26
2017-12-23T00:24:50.251Z,7.19
2017-12-23T00:24:54.062Z,7.19
2017-12-23T00:24:58.188Z,7.15
2017-12-23T00:25:02.407Z,7.21
2017-12-23T00:25:06.093Z,7.19
2017-12-23T00:25:10.237Z,7.24
2017-12-23T00:25:14.259Z,7.29
2017-12-23T00:25:18.595Z,7.21
2017-12-23T00:25:22.935Z,7.18
2017-12-23T00:25:27.074Z,7.15
2017-12-23T00:25:31.352Z,7.18
2017-12-23T00:25:35.182Z,7.26
2017-12-23T00:25:39.090Z,7.19
2017-12-23T00:25:43.207Z,7.21
2017-12-23T00:25:47.351Z,7.21
2017-12-23T00:25:51.681Z,7.18
2017-12-23T00:25:55.905Z,7.11
2017-12-23T00:25:59.927Z,7.18
2017-12-23T00:26:04.057Z,7.16
2017-12-23T00:26:08.063Z,7.16
2017-12-23T00:26:12.391Z,7.24
2017-12-23T00:26:16.539Z,7.23
2017-12-23T00:26:20.558Z,7.23
2017-12-23T00:26:24.683Z,7.21
2017-12-23T00:26:28.816Z,7.21
2017-12-23T00:26:32.966Z,7.21
2017-12-23T00:26:36.995Z,7.24
2017-12-23T00:26:41.215Z,7.24
2017-12-23T00:26:45.324Z,7.19
2017-12-23T00:26:49.240Z,7.21
2017-12-23T00:26:53.370Z,7.24
2017-12-23T00:26:57.500Z,7.21
2017-12-23T00:27:01.816Z,7.18
2017-12-23T00:27:05.948Z,7.19
2017-12-23T00:27:10.056Z,7.24
2017-12-23T00:27:13.974Z,7.24
2017-12-23T00:27:18.203Z,7.21
2017-12-23T00:27:22.109Z,7.24
2017-12-23T00:27:26.015Z,7.23
2017-12-23T00:27:30.138Z,7.18
2017-12-23T00:27:34.382Z,7.16
2017-12-23T00:27:38.613Z,7.27
2017-12-23T00:27:42.644Z,7.16
2017-12-23T00:27:46.882Z,7.23
2017-12-23T00:27:51.126Z,7.26
2017-12-23T00:27:55.092Z,7.21
2017-12-23T00:27:59.430Z,7.19
2017-12-23T00:28:03.662Z,7.19
2017-12-23T00:28:07.579Z,7.21
2017-12-23T00:28:11.597Z,7.18
2017-12-23T00:28:15.722Z,7.19
2017-12-23T00:28:19.740Z,7.18
2017-12-23T00:28:23.665Z,7.24
2017-12-23T00:28:27.891Z,7.18
2017-12-23T00:28:31.916Z,7.27
2017-12-23T00:28:36.066Z,7.21
2017-12-23T00:28:40.188Z,7.26
2017-12-23T00:28:44.090Z,7.24
2017-12-23T00:28:48.102Z,7.24
2017-12-23T00:28:52.231Z,7.26
2017-12-23T00:28:56.574Z,7.29
2017-12-23T00:29:00.686Z,7.19
2017-12-23T00:29:04.928Z,7.26
2017-12-23T00:29:08.953Z,7.23
2017-12-23T00:29:13.089Z,7.24
2017-12-23T00:29:17.101Z,7.23
2017-12-23T00:29:21.004Z,7.23
2017-12-23T00:29:25.127Z,7.26
2017-12-23T00:29:29.363Z,7.23
2017-12-23T00:29:33.599Z,7.23
2017-12-23T00:29:37.727Z,7.29
2017-12-23T00:29:41.744Z,7.32
2017-12-23T00:29:45.986Z,7.18
2017-12-23T00:29:50.318Z,7.33
2017-12-23T00:29:54.553Z,7.33
2017-12-23T00:29:58.559Z,7.24
2017-12-23T00:30:02.353Z,7.24
2017-12-23T00:30:06.489Z,7.29
2017-12-23T00:30:10.826Z,7.3
2017-12-23T00:30:14.847Z,7.21
2017-12-23T00:30:19.179Z,7.27
2017-12-23T00:30:23.397Z,7.3
2017-12-23T00:30:27.512Z,7.23
2017-12-23T00:30:31.870Z,7.32
2017-12-23T00:30:35.985Z,7.23
2017-12-23T00:30:40.220Z,7.18
2017-12-23T00:30:44.460Z,7.23
2017-12-23T00:30:48.587Z,7.24
2017-12-23T00:30:52.741Z,7.29
2017-12-23T00:30:56.760Z,7.19
2017-12-23T00:31:00.871Z,7.19
2017-12-23T00:31:05.037Z,7.24
2017-12-23T00:31:09.159Z,7.21
2017-12-23T00:31:13.295Z,7.27
2017-12-23T00:31:17.418Z,7.26
2017-12-23T00:31:21.652Z,7.23
2017-12-23T00:31:25.894Z,7.26
2017-12-23T00:31:30.236Z,7.26
2017-12-23T00:31:34.378Z,7.32
2017-12-23T00:31:38.518Z,7.29
2017-12-23T00:31:42.738Z,7.34
2017-12-23T00:31:46.863Z,7.23
2017-12-23T00:31:50.982Z,7.24
2017-12-23T00:31:54.889Z,7.33
2017-12-23T00:31:58.901Z,7.33
2017-12-23T00:32:03.380Z,7.29
2017-12-23T00:32:07.292Z,7.33
2017-12-23T00:32:11.425Z,7.29
2017-12-23T00:32:15.346Z,7.27
2017-12-23T00:32:19.367Z,7.23
2017-12-23T00:32:23.187Z,7.34
2017-12-23T00:32:27.301Z,7.19
2017-12-23T00:32:31.219Z,7.3
2017-12-23T00:32:35.337Z,7.34
2017-12-23T00:32:39.470Z,7.29
2017-12-23T00:32:43.592Z,7.37
2017-12-23T00:32:47.603Z,7.26
2017-12-23T00:32:51.844Z,7.3
2017-12-23T00:32:55.975Z,7.3
2017-12-23T00:33:00.102Z,7.33
2017-12-23T00:33:04.342Z,7.36
2017-12-23T00:33:08.380Z,7.33
2017-12-23T00:33:12.620Z,7.3
2017-12-23T00:33:16.646Z,7.34
2017-12-23T00:33:20.886Z,7.29
2017-12-23T00:33:25.151Z,7.33
2017-12-23T00:33:29.283Z,7.36
2017-12-23T00:33:33.512Z,7.27
2017-12-23T00:33:37.643Z,7.27
2017-12-23T00:33:41.665Z,7.24
2017-12-23T00:33:45.690Z,7.34
2017-12-23T00:33:49.618Z,7.33
2017-12-23T00:33:53.844Z,7.29
2017-12-23T00:33:57.860Z,7.32
2017-12-23T00:34:01.991Z,7.34
2017-12-23T00:34:06.217Z,7.23
2017-12-23T00:34:10.237Z,7.34
2017-12-23T00:34:14.364Z,7.34
2017-12-23T00:34:18.624Z,7.3
2017-12-23T00:34:22.842Z,7.3
2017-12-23T00:34:26.863Z,7.3
2017-12-23T00:34:31.087Z,7.23
2017-12-23T00:34:35.316Z,7.3
2017-12-23T00:34:39.331Z,7.3
2017-12-23T00:34:43.449Z,7.23
2017-12-23T00:34:47.463Z,7.26
2017-12-23T00:34:51.589Z,7.33
2017-12-23T00:34:55.498Z,7.29
2017-12-23T00:34:59.518Z,7.26
2017-12-23T00:35:03.924Z,7.34
2017-12-23T00:35:08.051Z,7.3
2017-12-23T00:35:12.070Z,7.33
2017-12-23T00:35:16.300Z,7.33
2017-12-23T00:35:20.530Z,7.37
2017-12-23T00:35:24.440Z,7.34
2017-12-23T00:35:28.693Z,7.32
2017-12-23T00:35:32.931Z,7.29
2017-12-23T00:35:37.176Z,7.29
2017-12-23T00:35:41.198Z,7.36
2017-12-23T00:35:45.317Z,7.29
2017-12-23T00:35:49.341Z,7.33
2017-12-23T00:35:53.349Z,7.29
2017-12-23T00:35:57.595Z,7.36
2017-12-23T00:36:02.017Z,7.3
2017-12-23T00:36:06.088Z,7.33
2017-12-23T00:36:10.218Z,7.37
2017-12-23T00:36:14.552Z,7.27
2017-12-23T00:36:18.960Z,7.32
2017-12-23T00:36:23.266Z,7.3
2017-12-23T00:36:27.497Z,7.26
2017-12-23T00:36:31.745Z,7.23
2017-12-23T00:36:35.867Z,7.29
2017-12-23T00:36:40.102Z,7.34
2017-12-23T00:36:44.126Z,7.34
2017-12-23T00:36:48.475Z,7.29
2017-12-23T00:36:52.696Z,7.29
2017-12-23T00:36:56.822Z,7.34
2017-12-23T00:37:00.832Z,7.23
2017-12-23T00:37:05.095Z,7.3
2017-12-23T00:37:09.430Z,7.26
2017-12-23T00:37:13.354Z,7.29
2017-12-23T00:37:17.479Z,7.29
2017-12-23T00:37:21.626Z,7.26
2017-12-23T00:37:25.654Z,7.33
2017-12-23T00:37:29.678Z,7.32
2017-12-23T00:37:33.811Z,7.29
2017-12-23T00:37:37.838Z,7.29
2017-12-23T00:37:41.985Z,7.23
2017-12-23T00:37:46.005Z,7.32
2017-12-23T00:37:50.035Z,7.37
2017-12-23T00:37:54.147Z,7.29
2017-12-23T00:37:58.283Z,7.3
2017-12-23T00:38:02.758Z,7.37
2017-12-23T00:38:06.893Z,7.27
2017-12-23T00:38:10.685Z,7.36
2017-12-23T00:38:14.707Z,7.37
2017-12-23T00:38:18.949Z,7.33
2017-12-23T00:38:23.071Z,7.36
2017-12-23T00:38:26.976Z,7.33
2017-12-23T00:38:31.037Z,7.33
2017-12-23T00:38:35.157Z,7.3
2017-12-23T00:38:39.278Z,7.3
2017-12-23T00:38:43.507Z,7.29
2017-12-23T00:38:47.641Z,7.3
2017-12-23T00:38:51.669Z,7.34
2017-12-23T00:38:55.791Z,7.36
2017-12-23T00:39:00.012Z,7.29
2017-12-23T00:39:04.241Z,7.34
2017-12-23T00:39:08.284Z,7.36
2017-12-23T00:39:12.409Z,7.23
2017-12-23T00:39:16.332Z,7.3
2017-12-23T00:39:20.572Z,7.3
2017-12-23T00:39:24.612Z,7.32
2017-12-23T00:39:28.951Z,7.23
2017-12-23T00:39:32.864Z,7.29
2017-12-23T00:39:37.007Z,7.33
2017-12-23T00:39:41.273Z,7.36
2017-12-23T00:39:45.396Z,7.36
2017-12-23T00:39:49.310Z,7.3
2017-12-23T00:39:53.339Z,7.29
2017-12-23T00:39:57.468Z,7.33
2017-12-23T00:40:01.927Z,7.32
2017-12-23T00:40:06.054Z,7.29
2017-12-23T00:40:10.080Z,7.32
2017-12-23T00:40:14.118Z,7.32
2017-12-23T00:40:18.245Z,7.29
2017-12-23T00:40:22.506Z,7.3
2017-12-23T00:40:26.628Z,7.26
2017-12-23T00:40:30.747Z,7.33
2017-12-23T00:40:34.973Z,7.3
2017-12-23T00:40:39.089Z,7.3
2017-12-23T00:40:43.212Z,7.3
2017-12-23T00:40:47.450Z,7.33
2017-12-23T00:40:51.684Z,7.26
2017-12-23T00:40:55.908Z,7.33
2017-12-23T00:41:00.014Z,7.32
2017-12-23T00:41:04.352Z,7.33
2017-12-23T00:41:08.378Z,7.32
2017-12-23T00:41:12.604Z,7.32
2017-12-23T00:41:16.517Z,7.34
2017-12-23T00:41:20.668Z,7.33
2017-12-23T00:41:24.808Z,7.33
2017-12-23T00:41:28.835Z,7.32
2017-12-23T00:41:33.056Z,7.34
2017-12-23T00:41:37.080Z,7.33
2017-12-23T00:41:41.104Z,7.32
2017-12-23T00:41:45.352Z,7.29
2017-12-23T00:41:49.265Z,7.3
2017-12-23T00:41:53.280Z,7.3
2017-12-23T00:41:57.072Z,7.34
2017-12-23T00:42:01.082Z,7.34
2017-12-23T00:42:05.159Z,7.3
2017-12-23T00:42:09.184Z,7.34
2017-12-23T00:42:13.104Z,7.36
2017-12-23T00:42:17.112Z,7.34
2017-12-23T00:42:21.333Z,7.32
2017-12-23T00:42:25.462Z,7.34
2017-12-23T00:42:29.691Z,7.34
2017-12-23T00:42:33.819Z,7.33
2017-12-23T00:42:37.948Z,7.3
2017-12-23T00:42:42.059Z,7.32
2017-12-23T00:42:46.198Z,7.32
2017-12-23T00:42:50.437Z,7.33
2017-12-23T00:42:54.580Z,7.26
2017-12-23T00:42:58.697Z,7.29
2017-12-23T00:43:02.821Z,7.34
2017-12-23T00:43:06.727Z,7.34
2017-12-23T00:43:10.943Z,7.29
2017-12-23T00:43:14.959Z,7.3
2017-12-23T00:43:18.968Z,7.36
2017-12-23T00:43:22.970Z,7.32
2017-12-23T00:43:26.984Z,7.29
2017-12-23T00:43:31.229Z,7.3
2017-12-23T00:43:35.569Z,7.3
2017-12-23T00:43:39.586Z,7.33
2017-12-23T00:43:43.499Z,7.37
2017-12-23T00:43:47.524Z,7.3
2017-12-23T00:43:51.632Z,7.34
2017-12-23T00:43:55.875Z,7.29
2017-12-23T00:43:59.786Z,7.29
2017-12-23T00:44:03.922Z,7.39
2017-12-23T00:44:08.154Z,7.33
2017-12-23T00:44:12.067Z,7.33
2017-12-23T00:44:16.202Z,7.33
2017-12-23T00:44:20.472Z,7.3
2017-12-23T00:44:24.595Z,7.32
2017-12-23T00:44:28.723Z,7.37
2017-12-23T00:44:32.850Z,7.34
2017-12-23T00:44:37.199Z,7.33
2017-12-23T00:44:41.008Z,7.32
2017-12-23T00:44:45.238Z,7.33
2017-12-23T00:44:49.249Z,7.3
2017-12-23T00:44:53.502Z,7.36
2017-12-23T00:44:57.747Z,7.39
2017-12-23T00:45:01.887Z,7.34
2017-12-23T00:45:06.118Z,7.33
2017-12-23T00:45:10.463Z,7.39
2017-12-23T00:45:14.698Z,7.37
2017-12-23T00:45:18.719Z,7.3
2017-12-23T00:45:22.842Z,7.33
2017-12-23T00:45:26.971Z,7.33
2017-12-23T00:45:31.202Z,7.45
2017-12-23T00:45:35.221Z,7.33
2017-12-23T00:45:39.563Z,7.36
2017-12-23T00:45:43.802Z,7.33
2017-12-23T00:45:47.819Z,7.37
2017-12-23T00:45:51.844Z,7.42
2017-12-23T00:45:56.168Z,7.32
2017-12-23T00:46:00.277Z,7.33
2017-12-23T00:46:04.306Z,7.32
2017-12-23T00:46:08.524Z,7.42
2017-12-23T00:46:12.802Z,7.41
2017-12-23T00:46:16.818Z,7.33
2017-12-23T00:46:21.077Z,7.42
2017-12-23T00:46:25.110Z,7.36
2017-12-23T00:46:29.239Z,7.39
2017-12-23T00:46:33.492Z,7.3
2017-12-23T00:46:37.506Z,7.42
2017-12-23T00:46:41.860Z,7.44
2017-12-23T00:46:46.213Z,7.34
2017-12-23T00:46:50.370Z,7.37
2017-12-23T00:46:54.502Z,7.36
2017-12-23T00:46:58.839Z,7.42
2017-12-23T00:47:02.966Z,7.42
2017-12-23T00:47:06.980Z,7.42
2017-12-23T00:47:11.315Z,7.36
2017-12-23T00:47:15.532Z,7.41
2017-12-23T00:47:19.548Z,7.44
2017-12-23T00:47:23.551Z,7.33
2017-12-23T00:47:27.474Z,7.34
2017-12-23T00:47:31.599Z,7.44
2017-12-23T00:47:35.943Z,7.39
2017-12-23T00:47:40.173Z,7.41
2017-12-23T00:47:44.196Z,7.36
2017-12-23T00:47:48.214Z,7.34
2017-12-23T00:47:52.418Z,7.37
2017-12-23T00:47:56.544Z,7.45
2017-12-23T00:48:00.768Z,7.44
2017-12-23T00:48:04.960Z,7.44
2017-12-23T00:48:09.179Z,7.44
2017-12-23T00:48:12.875Z,7.32
2017-12-23T00:48:16.997Z,7.42
2017-12-23T00:48:21.005Z,7.36
2017-12-23T00:48:25.030Z,7.33
2017-12-23T00:48:29.264Z,7.39
2017-12-23T00:48:33.179Z,7.41
2017-12-23T00:48:37.206Z,7.39
2017-12-23T00:48:41.444Z,7.45
2017-12-23T00:48:45.574Z,7.39
2017-12-23T00:48:49.721Z,7.34
2017-12-23T00:48:53.745Z,7.36
2017-12-23T00:48:57.873Z,7.42
2017-12-23T00:49:01.931Z,7.42
2017-12-23T00:49:06.049Z,7.42
2017-12-23T00:49:10.287Z,7.44
2017-12-23T00:49:14.322Z,7.36
2017-12-23T00:49:18.667Z,7.34
2017-12-23T00:49:22.918Z,7.41
2017-12-23T00:49:27.189Z,7.44
2017-12-23T00:49:31.333Z,7.44
2017-12-23T00:49:35.452Z,7.33
2017-12-23T00:49:39.383Z,7.45
2017-12-23T00:49:43.594Z,7.42
2017-12-23T00:49:47.813Z,7.44
2017-12-23T00:49:52.153Z,7.42
2017-12-23T00:49:56.188Z,7.42
2017-12-23T00:50:00.203Z,7.42
2017-12-23T00:50:04.336Z,7.36
2017-12-23T00:50:08.679Z,7.41
2017-12-23T00:50:12.899Z,7.44
2017-12-23T00:50:17.244Z,7.42
2017-12-23T00:50:21.367Z,7.39
2017-12-23T00:50:25.487Z,7.39
2017-12-23T00:50:29.715Z,7.41
2017-12-23T00:50:33.845Z,7.41
2017-12-23T00:50:37.984Z,7.41
2017-12-23T00:50:42.000Z,7.42
2017-12-23T00:50:46.116Z,7.41
2017-12-23T00:50:50.339Z,7.39
2017-12-23T00:50:54.472Z,7.41
2017-12-23T00:50:58.600Z,7.32
2017-12-23T00:51:03.011Z,7.42
2017-12-23T00:51:07.028Z,7.37
2017-12-23T00:51:10.845Z,7.44
2017-12-23T00:51:15.089Z,7.44
2017-12-23T00:51:19.325Z,7.37
2017-12-23T00:51:23.362Z,7.42
2017-12-23T00:51:27.503Z,7.41
2017-12-23T00:51:31.869Z,7.39
2017-12-23T00:51:35.995Z,7.36
2017-12-23T00:51:40.336Z,7.42
2017-12-23T00:51:44.563Z,7.41
2017-12-23T00:51:48.697Z,7.44
2017-12-23T00:51:53.045Z,7.39
2017-12-23T00:51:57.159Z,7.42
2017-12-23T00:52:01.272Z,7.37
2017-12-23T00:52:05.412Z,7.41
2017-12-23T00:52:09.555Z,7.39
2017-12-23T00:52:13.576Z,7.42
2017-12-23T00:52:17.606Z,7.39
2017-12-23T00:52:21.509Z,7.41
2017-12-23T00:52:25.652Z,7.37
2017-12-23T00:52:29.551Z,7.45
2017-12-23T00:52:33.570Z,7.41
2017-12-23T00:52:37.696Z,7.42
2017-12-23T00:52:41.925Z,7.37
2017-12-23T00:52:46.047Z,7.45
2017-12-23T00:52:50.397Z,7.39
2017-12-23T00:52:54.512Z,7.42
2017-12-23T00:52:58.852Z,7.33
2017-12-23T00:53:02.992Z,7.37
2017-12-23T00:53:07.113Z,7.36
2017-12-23T00:53:11.352Z,7.42
2017-12-23T00:53:15.469Z,7.42
2017-12-23T00:53:19.477Z,7.37
2017-12-23T00:53:23.384Z,7.42
2017-12-23T00:53:27.530Z,7.39
2017-12-23T00:53:31.659Z,7.45
2017-12-23T00:53:35.802Z,7.41
2017-12-23T00:53:39.717Z,7.39
2017-12-23T00:53:43.854Z,7.36
2017-12-23T00:53:47.881Z,7.41
2017-12-23T00:53:52.246Z,7.45
2017-12-23T00:53:56.056Z,7.37
2017-12-23T00:54:00.294Z,7.47
2017-12-23T00:54:04.526Z,7.44
2017-12-23T00:54:08.750Z,7.45
2017-12-23T00:54:12.867Z,7.36
2017-12-23T00:54:16.998Z,7.45
2017-12-23T00:54:21.113Z,7.37
2017-12-23T00:54:25.352Z,7.42
2017-12-23T00:54:29.258Z,7.42
2017-12-23T00:54:33.299Z,7.45
2017-12-23T00:54:37.646Z,7.42
2017-12-23T00:54:41.998Z,7.37
2017-12-23T00:54:46.218Z,7.41
2017-12-23T00:54:50.332Z,7.42
2017-12-23T00:54:54.230Z,7.42
2017-12-23T00:54:58.140Z,7.41
2017-12-23T00:55:02.152Z,7.45
2017-12-23T00:55:06.182Z,7.39
2017-12-23T00:55:10.406Z,7.34
2017-12-23T00:55:14.419Z,7.42
2017-12-23T00:55:18.642Z,7.42
2017-12-23T00:55:23.005Z,7.45
2017-12-23T00:55:27.028Z,7.37
2017-12-23T00:55:31.350Z,7.47
2017-12-23T00:55:35.481Z,7.36
2017-12-23T00:55:39.290Z,7.42
2017-12-23T00:55:43.439Z,7.42
2017-12-23T00:55:47.677Z,7.41
2017-12-23T00:55:51.699Z,7.39
2017-12-23T00:55:55.933Z,7.37